Wetterdaten: Woche 01.12.08 - 07.12.08 (KW49)
Datum Zeit Temp. A. Feuchte A. Luftdruck Regen Wind Richtung Taupunkt Windchill Windben
01.12.2008 00:00 5,5 C 77 % 1004,8 hPa 0,0 l/m 2,0 km/h (1 Bft) S-SO 1,8 C 5,5 C 9,3 km/h (2 Bft)
01.12.2008 01:00 6,8 C 67 % 1005,1 hPa 0,0 l/m 5,6 km/h (1 Bft) S 1,2 C 6,4 C 22,1 km/h (4 Bft)
01.12.2008 02:00 6,6 C 73 % 1006,1 hPa 0,0 l/m 7,8 km/h (2 Bft) S 2,0 C 5,0 C 23,7 km/h (4 Bft)
01.12.2008 03:00 6,3 C 80 % 1006,2 hPa 0,0 l/m 1,6 km/h (1 Bft) S-SO 3,0 C 6,3 C 7,3 km/h (2 Bft)
01.12.2008 04:00 6,1 C 85 % 1005,4 hPa 0,0 l/m 0,2 km/h (0 Bft) N 3,6 C 6,1 C 2,8 km/h (1 Bft)
01.12.2008 05:00 6,1 C 88 % 1004,2 hPa 0,0 l/m 0,6 km/h (0 Bft) S 4,2 C 6,1 C 5,6 km/h (1 Bft)
01.12.2008 06:00 5,9 C 89 % 1003,2 hPa 0,3 l/m 0,4 km/h (0 Bft) O-SO 4,3 C 5,9 C 2,8 km/h (1 Bft)
01.12.2008 07:00 5,9 C 90 % 1002,4 hPa 0,0 l/m 0,8 km/h (0 Bft) O-SO 4,4 C 5,9 C 5,6 km/h (1 Bft)
01.12.2008 08:00 5,9 C 91 % 1001,8 hPa 0,0 l/m 0,5 km/h (0 Bft) S 4,5 C 5,9 C 2,8 km/h (1 Bft)
01.12.2008 09:00 7,0 C 89 % 1000,7 hPa 0,0 l/m 1,9 km/h (1 Bft) O-SO 5,4 C 7,0 C 9,6 km/h (2 Bft)
01.12.2008 10:00 7,7 C 84 % 999,6 hPa 0,0 l/m 2,8 km/h (1 Bft) S-SO 5,2 C 7,7 C 10,9 km/h (2 Bft)
01.12.2008 11:00 9,0 C 78 % 998,6 hPa 0,0 l/m 4,9 km/h (1 Bft) S 5,4 C 9,0 C 15,7 km/h (3 Bft)
01.12.2008 12:00 9,1 C 81 % 998,7 hPa 0,9 l/m 9,0 km/h (2 Bft) S-SO 6,1 C 7,3 C 26,5 km/h (4 Bft)
01.12.2008 13:00 10,1 C 76 % 997,6 hPa 0,0 l/m 6,2 km/h (2 Bft) SO 6,1 C 9,6 C 19,3 km/h (3 Bft)
01.12.2008 14:00 10,4 C 75 % 996,8 hPa 0,0 l/m 8,9 km/h (2 Bft) S-SO 6,0 C 8,6 C 28,2 km/h (4 Bft)
01.12.2008 15:00 9,8 C 74 % 996,7 hPa 0,0 l/m 9,7 km/h (2 Bft) O-SO 5,3 C 7,5 C 29,4 km/h (5 Bft)
01.12.2008 16:00 8,8 C 74 % 996,4 hPa 0,0 l/m 7,3 km/h (2 Bft) S 4,4 C 8,1 C 26,1 km/h (4 Bft)
01.12.2008 17:00 7,9 C 75 % 997,2 hPa 0,0 l/m 6,5 km/h (2 Bft) S-SW 3,7 C 7,3 C 19,7 km/h (3 Bft)
01.12.2008 18:00 7,1 C 76 % 998,4 hPa 0,0 l/m 1,7 km/h (1 Bft) O-SO 3,1 C 7,1 C 8,8 km/h (2 Bft)
01.12.2008 19:00 6,8 C 74 % 999,0 hPa 0,0 l/m 3,3 km/h (1 Bft) S 2,4 C 6,8 C 11,3 km/h (2 Bft)
01.12.2008 20:00 5,9 C 75 % 1001,0 hPa 0,0 l/m 1,5 km/h (1 Bft) N 1,9 C 5,9 C 5,6 km/h (1 Bft)
01.12.2008 21:00 5,7 C 75 % 1002,2 hPa 0,0 l/m 1,2 km/h (1 Bft) W-NW 1,6 C 5,7 C 5,2 km/h (1 Bft)
01.12.2008 22:00 6,3 C 72 % 1002,9 hPa 0,0 l/m 5,9 km/h (2 Bft) W 1,6 C 6,0 C 17,7 km/h (3 Bft)
01.12.2008 23:00 7,1 C 69 % 1004,1 hPa 0,0 l/m 6,5 km/h (2 Bft) SW 1,7 C 6,7 C 19,7 km/h (3 Bft)
02.12.2008 00:00 6,9 C 70 % 1005,0 hPa 0,0 l/m 8,3 km/h (2 Bft) W-SW 1,7 C 5,4 C 22,1 km/h (4 Bft)
02.12.2008 01:00 6,7 C 71 % 1005,4 hPa 0,0 l/m 7,0 km/h (2 Bft) SW 1,8 C 5,9 C 18,9 km/h (3 Bft)
02.12.2008 02:00 6,4 C 72 % 1006,3 hPa 0,0 l/m 0,8 km/h (0 Bft) W-SW 1,7 C 6,4 C 5,6 km/h (1 Bft)
02.12.2008 03:00 6,1 C 73 % 1006,8 hPa 0,0 l/m 0,5 km/h (0 Bft) N 1,7 C 6,1 C 3,2 km/h (1 Bft)
02.12.2008 04:00 5,2 C 78 % 1007,5 hPa 0,0 l/m 0,1 km/h (0 Bft) N 1,7 C 5,2 C 2,4 km/h (1 Bft)
02.12.2008 05:00 4,5 C 81 % 1008,0 hPa 0,0 l/m 0,1 km/h (0 Bft) N 1,4 C 4,5 C 2,0 km/h (1 Bft)
02.12.2008 06:00 3,8 C 83 % 1008,3 hPa 0,0 l/m 0,0 km/h (0 Bft) N 1,1 C 3,8 C 1,2 km/h (1 Bft)
02.12.2008 07:00 3,0 C 84 % 1009,0 hPa 0,0 l/m 0,1 km/h (0 Bft) N 0,5 C 3,0 C 3,7 km/h (1 Bft)
02.12.2008 08:00 3,3 C 87 % 1009,7 hPa 0,0 l/m 0,0 km/h (0 Bft) N 1,4 C 3,3 C 0,5 km/h (0 Bft)
02.12.2008 09:00 5,0 C 85 % 1009,9 hPa 0,0 l/m 0,1 km/h (0 Bft) NW 2,6 C 5,0 C 1,6 km/h (1 Bft)
02.12.2008 10:00 6,8 C 75 % 1010,2 hPa 0,0 l/m 2,1 km/h (1 Bft) NW 2,6 C 6,8 C 6,0 km/h (2 Bft)
02.12.2008 11:00 7,7 C 71 % 1010,0 hPa 0,0 l/m 0,2 km/h (0 Bft) N 2,8 C 7,7 C 2,4 km/h (1 Bft)
02.12.2008 12:00 8,1 C 68 % 1010,1 hPa 0,0 l/m 0,9 km/h (0 Bft) W-NW 2,6 C 8,1 C 3,6 km/h (1 Bft)
02.12.2008 13:00 8,4 C 61 % 1010,0 hPa 0,0 l/m 1,6 km/h (1 Bft) N 1,3 C 8,4 C 6,0 km/h (2 Bft)
02.12.2008 14:00 8,5 C 60 % 1010,2 hPa 0,0 l/m 1,5 km/h (1 Bft) NW 1,1 C 8,5 C 6,4 km/h (2 Bft)
02.12.2008 15:00 7,6 C 61 % 1010,8 hPa 0,0 l/m 1,1 km/h (0 Bft) N 0,6 C 7,6 C 2,7 km/h (1 Bft)
02.12.2008 16:00 6,7 C 68 % 1011,4 hPa 0,0 l/m 0,1 km/h (0 Bft) N 1,3 C 6,7 C 0,4 km/h (0 Bft)
02.12.2008 17:00 5,0 C 77 % 1011,9 hPa 0,0 l/m 0,0 km/h (0 Bft) N 1,2 C 5,0 C 0,0 km/h (0 Bft)
02.12.2008 18:00 3,5 C 82 % 1012,1 hPa 0,0 l/m 0,0 km/h (0 Bft) N 0,7 C 3,5 C 1,2 km/h (1 Bft)
02.12.2008 19:00 3,0 C 84 % 1012,3 hPa 0,0 l/m 0,0 km/h (0 Bft) N 0,5 C 3,0 C 0,4 km/h (0 Bft)
02.12.2008 20:00 1,9 C 84 % 1012,4 hPa 0,0 l/m 0,0 km/h (0 Bft) N -0,6 C 1,9 C 0,4 km/h (0 Bft)
02.12.2008 21:00 1,8 C 86 % 1012,2 hPa 0,0 l/m 0,0 km/h (0 Bft) N -0,3 C 1,8 C 0,0 km/h (0 Bft)
02.12.2008 22:00 2,5 C 88 % 1011,9 hPa 0,0 l/m 0,0 km/h (0 Bft) N 0,7 C 2,5 C 0,8 km/h (0 Bft)
02.12.2008 23:00 2,8 C 87 % 1011,7 hPa 0,0 l/m 0,1 km/h (0 Bft) N 0,9 C 2,8 C 0,8 km/h (0 Bft)
03.12.2008 00:00 3,1 C 87 % 1011,5 hPa 0,0 l/m 0,1 km/h (0 Bft) N 1,2 C 3,1 C 2,0 km/h (1 Bft)
03.12.2008 01:00 3,4 C 88 % 1010,9 hPa 0,3 l/m 0,1 km/h (0 Bft) N 1,6 C 3,4 C 1,2 km/h (1 Bft)
03.12.2008 02:00 3,5 C 89 % 1010,9 hPa 0,6 l/m 0,1 km/h (0 Bft) N 1,9 C 3,5 C 2,4 km/h (1 Bft)
03.12.2008 03:00 3,5 C 90 % 1010,5 hPa 0,3 l/m 0,3 km/h (0 Bft) N 2,0 C 3,5 C 3,2 km/h (1 Bft)
03.12.2008 04:00 3,2 C 90 % 1010,2 hPa 0,0 l/m 0,2 km/h (0 Bft) N 1,7 C 3,2 C 2,8 km/h (1 Bft)
03.12.2008 05:00 2,9 C 90 % 1010,1 hPa 0,0 l/m 0,0 km/h (0 Bft) N 1,4 C 2,9 C 0,0 km/h (0 Bft)
03.12.2008 06:00 2,8 C 90 % 1009,7 hPa 0,0 l/m 0,0 km/h (0 Bft) N 1,3 C 2,8 C 0,0 km/h (0 Bft)
03.12.2008 07:00 2,7 C 90 % 1009,8 hPa 0,0 l/m 0,0 km/h (0 Bft) N 1,2 C 2,7 C 0,0 km/h (0 Bft)
03.12.2008 08:00 2,8 C 91 % 1009,5 hPa 0,0 l/m 0,0 km/h (0 Bft) N 1,4 C 2,8 C 0,0 km/h (0 Bft)
03.12.2008 09:00 3,6 C 91 % 1009,0 hPa 0,0 l/m 0,8 km/h (0 Bft) S 2,2 C 3,6 C 6,0 km/h (2 Bft)
03.12.2008 10:00 4,6 C 88 % 1008,2 hPa 0,0 l/m 1,0 km/h (0 Bft) S 2,7 C 4,6 C 5,6 km/h (1 Bft)
03.12.2008 11:00 5,2 C 82 % 1007,0 hPa 0,0 l/m 1,6 km/h (1 Bft) S 2,4 C 5,2 C 8,9 km/h (2 Bft)
03.12.2008 12:00 5,1 C 82 % 1006,1 hPa 0,0 l/m 1,0 km/h (0 Bft) S-SW 2,3 C 5,1 C 7,2 km/h (2 Bft)
03.12.2008 13:00 5,4 C 81 % 1005,3 hPa 0,0 l/m 1,2 km/h (1 Bft) O 2,3 C 5,4 C 6,0 km/h (2 Bft)
03.12.2008 14:00 5,4 C 82 % 1004,2 hPa 0,0 l/m 1,7 km/h (1 Bft) O-SO 2,6 C 5,4 C 6,4 km/h (2 Bft)
03.12.2008 15:00 5,2 C 84 % 1004,3 hPa 0,0 l/m 2,4 km/h (1 Bft) O-SO 2,7 C 5,2 C 7,6 km/h (2 Bft)
03.12.2008 16:00 4,5 C 85 % 1004,7 hPa 0,0 l/m 1,3 km/h (1 Bft) O-SO 2,2 C 4,5 C 5,6 km/h (1 Bft)
03.12.2008 17:00 3,8 C 87 % 1005,1 hPa 0,0 l/m 0,3 km/h (0 Bft) N 1,8 C 3,8 C 3,2 km/h (1 Bft)
03.12.2008 18:00 3,2 C 89 % 1005,0 hPa 0,0 l/m 0,4 km/h (0 Bft) O-SO 1,5 C 3,2 C 1,6 km/h (1 Bft)
03.12.2008 19:00 1,6 C 87 % 1005,2 hPa 0,0 l/m 0,0 km/h (0 Bft) N -0,2 C 1,6 C 0,0 km/h (0 Bft)
03.12.2008 20:00 0,1 C 88 % 1005,5 hPa 0,0 l/m 0,0 km/h (0 Bft) N -1,7 C 0,1 C 0,0 km/h (0 Bft)
03.12.2008 21:00 0,6 C 90 % 1005,9 hPa 0,0 l/m 0,1 km/h (0 Bft) N -0,9 C 0,6 C 1,2 km/h (1 Bft)
03.12.2008 22:00 1,5 C 91 % 1005,9 hPa 0,0 l/m 1,0 km/h (0 Bft) W-SW 0,2 C 1,5 C 4,8 km/h (1 Bft)
03.12.2008 23:00 1,1 C 91 % 1006,5 hPa 0,0 l/m 0,3 km/h (0 Bft) N -0,2 C 1,1 C 4,0 km/h (1 Bft)
04.12.2008 00:00 0,4 C 91 % 1007,0 hPa 0,0 l/m 0,3 km/h (0 Bft) N -0,9 C 0,4 C 3,2 km/h (1 Bft)
04.12.2008 01:00 0,2 C 91 % 1006,9 hPa 0,0 l/m 1,8 km/h (1 Bft) O-NO -1,1 C 0,2 C 5,6 km/h (1 Bft)
04.12.2008 02:00 0,0 C 92 % 1008,2 hPa 0,0 l/m 0,6 km/h (0 Bft) W-SW -1,1 C 0,0 C 3,2 km/h (1 Bft)
04.12.2008 03:00 0,1 C 92 % 1008,2 hPa 0,0 l/m 1,1 km/h (1 Bft) W -1,1 C 0,1 C 4,4 km/h (1 Bft)
04.12.2008 04:00 -0,2 C 92 % 1008,6 hPa 0,0 l/m 0,7 km/h (0 Bft) W-SW -1,3 C -0,2 C 4,4 km/h (1 Bft)
04.12.2008 05:00 -0,2 C 93 % 1008,8 hPa 0,0 l/m 0,4 km/h (0 Bft) N -1,3 C -0,2 C 3,2 km/h (1 Bft)
04.12.2008 06:00 -0,2 C 93 % 1009,8 hPa 0,0 l/m 0,5 km/h (0 Bft) S-SW -1,2 C -0,2 C 3,6 km/h (1 Bft)
04.12.2008 07:00 -0,3 C 93 % 1010,3 hPa 0,0 l/m 0,4 km/h (0 Bft) O-SO -1,2 C -0,3 C 2,8 km/h (1 Bft)
04.12.2008 08:00 -0,6 C 93 % 1010,5 hPa 0,0 l/m 0,7 km/h (0 Bft) N -1,5 C -0,6 C 3,6 km/h (1 Bft)
04.12.2008 09:00 -0,2 C 93 % 1010,2 hPa 0,6 l/m 0,3 km/h (0 Bft) N -1,2 C -0,2 C 4,8 km/h (1 Bft)
04.12.2008 10:00 0,3 C 93 % 1009,0 hPa 0,0 l/m 0,7 km/h (0 Bft) S -0,7 C 0,3 C 3,6 km/h (1 Bft)
04.12.2008 11:00 0,6 C 93 % 1008,1 hPa 0,0 l/m 0,6 km/h (0 Bft) S-SO -0,4 C 0,6 C 4,8 km/h (1 Bft)
04.12.2008 12:00 0,4 C 93 % 1006,5 hPa 0,0 l/m 1,6 km/h (1 Bft) O-SO -0,6 C 0,4 C 8,0 km/h (2 Bft)
04.12.2008 13:00 0,4 C 93 % 1005,8 hPa 0,0 l/m 1,6 km/h (1 Bft) O-SO -0,6 C 0,4 C 7,2 km/h (2 Bft)
04.12.2008 14:00 0,2 C 93 % 1004,8 hPa 0,0 l/m 1,6 km/h (1 Bft) S -0,8 C 0,2 C 9,7 km/h (2 Bft)
04.12.2008 15:00 0,3 C 93 % 1003,4 hPa 0,0 l/m 0,8 km/h (0 Bft) N -0,7 C 0,3 C 6,4 km/h (2 Bft)
04.12.2008 16:00 0,6 C 93 % 1002,3 hPa 0,0 l/m 0,0 km/h (0 Bft) N -0,4 C 0,6 C 6,4 km/h (2 Bft)
04.12.2008 17:00 0,8 C 93 % 1001,3 hPa 0,0 l/m 0,2 km/h (0 Bft) N -0,2 C 0,8 C 4,0 km/h (1 Bft)
04.12.2008 18:00 1,0 C 93 % 1000,0 hPa 0,0 l/m 0,2 km/h (0 Bft) N 0,0 C 1,0 C 2,8 km/h (1 Bft)
04.12.2008 19:00 1,1 C 93 % 998,4 hPa 0,0 l/m 0,6 km/h (0 Bft) O-SO 0,0 C 1,1 C 3,6 km/h (1 Bft)
04.12.2008 20:00 1,1 C 92 % 997,1 hPa 0,0 l/m 0,0 km/h (0 Bft) N -0,1 C 1,1 C 1,6 km/h (1 Bft)
04.12.2008 21:00 0,7 C 91 % 996,5 hPa 0,0 l/m 0,2 km/h (0 Bft) N -0,7 C 0,7 C 2,0 km/h (1 Bft)
04.12.2008 22:00 -0,1 C 89 % 996,0 hPa 0,0 l/m 0,1 km/h (0 Bft) N -1,7 C -0,1 C 1,2 km/h (1 Bft)
04.12.2008 23:00 -0,6 C 90 % 995,7 hPa 0,0 l/m 0,0 km/h (0 Bft) N -2,1 C -0,6 C 0,0 km/h (0 Bft)
05.12.2008 00:00 -0,7 C 90 % 994,9 hPa 0,0 l/m 0,0 km/h (0 Bft) N -2,2 C -0,7 C 0,0 km/h (0 Bft)
05.12.2008 01:00 -0,5 C 90 % 994,8 hPa 0,0 l/m 0,1 km/h (0 Bft) N -1,9 C -0,5 C 1,6 km/h (1 Bft)
05.12.2008 02:00 -0,4 C 90 % 994,8 hPa 0,0 l/m 0,5 km/h (0 Bft) NW -1,8 C -0,4 C 3,2 km/h (1 Bft)
05.12.2008 03:00 -1,6 C 89 % 994,8 hPa 0,0 l/m 0,1 km/h (0 Bft) N -3,1 C -1,6 C 1,6 km/h (1 Bft)
05.12.2008 04:00 -1,8 C 90 % 995,2 hPa 0,0 l/m 0,0 km/h (0 Bft) N -3,2 C -1,8 C 0,8 km/h (0 Bft)
05.12.2008 05:00 -1,2 C 91 % 995,5 hPa 0,0 l/m 0,0 km/h (0 Bft) N -2,5 C -1,2 C 0,4 km/h (0 Bft)
05.12.2008 06:00 -0,5 C 92 % 996,7 hPa 0,0 l/m 0,4 km/h (0 Bft) N-NW -1,7 C -0,5 C 2,4 km/h (1 Bft)
05.12.2008 07:00 -0,3 C 91 % 997,3 hPa 0,0 l/m 1,1 km/h (0 Bft) W-SW -1,5 C -0,3 C 4,8 km/h (1 Bft)
05.12.2008 08:00 -1,0 C 91 % 998,0 hPa 0,0 l/m 0,6 km/h (0 Bft) N -2,2 C -1,0 C 4,8 km/h (1 Bft)
05.12.2008 09:00 -0,3 C 92 % 998,7 hPa 0,0 l/m 0,1 km/h (0 Bft) N -1,4 C -0,3 C 1,6 km/h (1 Bft)
05.12.2008 10:00 0,5 C 92 % 999,1 hPa 0,0 l/m 0,3 km/h (0 Bft) N -0,7 C 0,5 C 3,6 km/h (1 Bft)
05.12.2008 11:00 1,2 C 92 % 998,9 hPa 0,0 l/m 0,2 km/h (0 Bft) N -0,1 C 1,2 C 2,4 km/h (1 Bft)
05.12.2008 12:00 1,5 C 90 % 998,7 hPa 0,0 l/m 0,2 km/h (0 Bft) N 0,1 C 1,5 C 2,8 km/h (1 Bft)
05.12.2008 13:00 1,9 C 89 % 998,7 hPa 0,0 l/m 0,0 km/h (0 Bft) N 0,3 C 1,9 C 0,8 km/h (0 Bft)
05.12.2008 14:00 2,3 C 89 % 998,7 hPa 0,3 l/m 0,1 km/h (0 Bft) N 0,7 C 2,3 C 1,6 km/h (1 Bft)
05.12.2008 15:00 2,6 C 89 % 999,1 hPa 0,0 l/m 0,1 km/h (0 Bft) N 1,0 C 2,6 C 0,8 km/h (0 Bft)
05.12.2008 16:00 2,7 C 89 % 999,0 hPa 0,0 l/m 0,0 km/h (0 Bft) N 1,0 C 2,7 C 0,0 km/h (0 Bft)
05.12.2008 17:00 2,5 C 89 % 999,0 hPa 0,0 l/m 0,0 km/h (0 Bft) N 0,9 C 2,5 C 0,0 km/h (0 Bft)
05.12.2008 18:00 2,6 C 90 % 999,1 hPa 0,0 l/m 0,5 km/h (0 Bft) NW 1,1 C 2,6 C 2,0 km/h (1 Bft)
05.12.2008 19:00 2,7 C 89 % 999,4 hPa 0,0 l/m 0,1 km/h (0 Bft) N 1,1 C 2,7 C 1,2 km/h (1 Bft)
05.12.2008 20:00 2,7 C 90 % 1000,0 hPa 2,4 l/m 0,9 km/h (0 Bft) N-NW 1,3 C 2,7 C 3,6 km/h (1 Bft)
05.12.2008 21:00 2,8 C 91 % 1001,0 hPa 2,4 l/m 5,1 km/h (1 Bft) NW 1,5 C 2,7 C 14,5 km/h (3 Bft)
05.12.2008 22:00 3,0 C 91 % 1001,5 hPa 0,3 l/m 4,0 km/h (1 Bft) SW 1,7 C 3,0 C 9,7 km/h (2 Bft)
05.12.2008 23:00 3,6 C 91 % 1001,9 hPa 0,3 l/m 3,0 km/h (1 Bft) W-SW 2,3 C 3,6 C 10,9 km/h (2 Bft)
06.12.2008 00:00 4,0 C 91 % 1002,5 hPa 0,6 l/m 4,6 km/h (1 Bft) W-SW 2,7 C 4,0 C 14,1 km/h (3 Bft)
06.12.2008 01:00 4,1 C 91 % 1002,7 hPa 0,0 l/m 1,0 km/h (0 Bft) N 2,8 C 4,1 C 5,6 km/h (1 Bft)
06.12.2008 02:00 3,9 C 91 % 1002,9 hPa 0,0 l/m 0,1 km/h (0 Bft) S 2,5 C 3,9 C 1,2 km/h (1 Bft)
06.12.2008 03:00 3,7 C 91 % 1002,9 hPa 0,0 l/m 0,4 km/h (0 Bft) N 2,3 C 3,7 C 3,6 km/h (1 Bft)
06.12.2008 04:00 2,2 C 90 % 1003,5 hPa 0,0 l/m 0,2 km/h (0 Bft) N 0,7 C 2,2 C 2,8 km/h (1 Bft)
06.12.2008 05:00 1,1 C 91 % 1004,4 hPa 0,0 l/m 0,6 km/h (0 Bft) W-NW -0,3 C 1,1 C 4,4 km/h (1 Bft)
06.12.2008 06:00 1,8 C 92 % 1005,5 hPa 0,0 l/m 3,1 km/h (1 Bft) W-SW 0,6 C 1,5 C 10,0 km/h (2 Bft)
06.12.2008 07:00 4,2 C 87 % 1006,3 hPa 0,0 l/m 4,9 km/h (1 Bft) W-SW 2,2 C 4,1 C 13,3 km/h (3 Bft)
06.12.2008 08:00 4,1 C 86 % 1007,0 hPa 0,0 l/m 0,3 km/h (0 Bft) N 2,0 C 4,1 C 2,4 km/h (1 Bft)
06.12.2008 09:00 4,2 C 88 % 1007,9 hPa 0,0 l/m 0,1 km/h (0 Bft) N 2,3 C 4,2 C 1,6 km/h (1 Bft)
06.12.2008 10:00 4,6 C 89 % 1008,4 hPa 0,0 l/m 0,0 km/h (0 Bft) N 2,9 C 4,6 C 0,8 km/h (0 Bft)
06.12.2008 11:00 5,7 C 86 % 1008,3 hPa 0,0 l/m 0,5 km/h (0 Bft) W-SW 3,5 C 5,7 C 4,8 km/h (1 Bft)
06.12.2008 12:00 7,8 C 68 % 1008,0 hPa 0,0 l/m 3,3 km/h (1 Bft) S 2,3 C 7,8 C 11,3 km/h (2 Bft)
06.12.2008 13:00 8,1 C 66 % 1007,8 hPa 0,0 l/m 2,3 km/h (1 Bft) N-NO 2,1 C 8,1 C 8,4 km/h (2 Bft)
06.12.2008 14:00 8,3 C 63 % 1007,6 hPa 0,0 l/m 2,3 km/h (1 Bft) W-NW 1,7 C 8,3 C 7,6 km/h (2 Bft)
06.12.2008 15:00 7,8 C 64 % 1008,0 hPa 0,0 l/m 0,4 km/h (0 Bft) N 1,3 C 7,8 C 4,0 km/h (1 Bft)
06.12.2008 16:00 6,7 C 67 % 1008,7 hPa 0,0 l/m 0,0 km/h (0 Bft) N 1,0 C 6,7 C 0,8 km/h (0 Bft)
06.12.2008 17:00 5,1 C 75 % 1009,3 hPa 0,0 l/m 0,1 km/h (0 Bft) N 1,1 C 5,1 C 1,6 km/h (1 Bft)
06.12.2008 18:00 4,2 C 80 % 1009,9 hPa 0,0 l/m 0,1 km/h (0 Bft) N 1,0 C 4,2 C 2,0 km/h (1 Bft)
06.12.2008 19:00 2,5 C 81 % 1010,5 hPa 0,0 l/m 0,1 km/h (0 Bft) N -0,5 C 2,5 C 1,2 km/h (1 Bft)
06.12.2008 20:00 1,9 C 86 % 1010,9 hPa 0,0 l/m 1,3 km/h (1 Bft) SW -0,1 C 1,9 C 6,4 km/h (2 Bft)
06.12.2008 21:00 3,1 C 85 % 1011,0 hPa 0,0 l/m 2,4 km/h (1 Bft) SW 0,8 C 3,1 C 7,6 km/h (2 Bft)
06.12.2008 22:00 3,9 C 82 % 1011,2 hPa 0,0 l/m 2,2 km/h (1 Bft) W 1,2 C 3,9 C 9,7 km/h (2 Bft)
06.12.2008 23:00 5,8 C 77 % 1011,4 hPa 0,0 l/m 8,3 km/h (2 Bft) W 2,0 C 4,3 C 23,3 km/h (4 Bft)
07.12.2008 00:00 5,5 C 77 % 1011,5 hPa 0,0 l/m 8,7 km/h (2 Bft) SW 1,8 C 3,6 C 22,5 km/h (4 Bft)
07.12.2008 01:00 5,7 C 76 % 1011,7 hPa 0,0 l/m 10,4 km/h (2 Bft) W-NW 1,8 C 2,6 C 25,7 km/h (4 Bft)
07.12.2008 02:00 5,8 C 76 % 1012,5 hPa 0,0 l/m 11,6 km/h (2 Bft) W-NW 1,9 C 1,9 C 27,8 km/h (4 Bft)
07.12.2008 03:00 5,6 C 77 % 1013,4 hPa 0,0 l/m 12,8 km/h (3 Bft) W 1,9 C 1,0 C 28,2 km/h (4 Bft)
07.12.2008 04:00 5,2 C 78 % 1014,4 hPa 0,0 l/m 8,6 km/h (2 Bft) NW 1,6 C 3,3 C 22,1 km/h (4 Bft)
07.12.2008 05:00 4,5 C 80 % 1015,0 hPa 0,0 l/m 8,0 km/h (2 Bft) W-NW 1,4 C 3,1 C 20,9 km/h (4 Bft)
07.12.2008 06:00 3,6 C 84 % 1015,9 hPa 0,6 l/m 6,4 km/h (2 Bft) W 1,2 C 2,8 C 16,1 km/h (3 Bft)
07.12.2008 07:00 3,3 C 87 % 1016,6 hPa 0,3 l/m 10,6 km/h (2 Bft) W-NW 1,3 C -0,2 C 24,1 km/h (4 Bft)
07.12.2008 08:00 3,3 C 88 % 1017,2 hPa 0,6 l/m 9,9 km/h (2 Bft) NW 1,5 C 0,3 C 23,8 km/h (4 Bft)
07.12.2008 09:00 3,7 C 88 % 1017,8 hPa 0,6 l/m 11,0 km/h (2 Bft) W 1,8 C -0,1 C 25,8 km/h (4 Bft)
07.12.2008 10:00 4,3 C 86 % 1018,4 hPa 0,0 l/m 9,3 km/h (2 Bft) W-NW 2,2 C 1,9 C 20,9 km/h (4 Bft)
07.12.2008 11:00 5,2 C 84 % 1018,5 hPa 0,0 l/m 10,0 km/h (2 Bft) W-NW 2,6 C 2,3 C 24,1 km/h (4 Bft)
07.12.2008 12:00 5,1 C 84 % 1019,0 hPa 0,3 l/m 8,6 km/h (2 Bft) NW 2,5 C 3,2 C 20,5 km/h (4 Bft)
07.12.2008 13:00 5,5 C 81 % 1018,9 hPa 0,0 l/m 10,3 km/h (2 Bft) W 2,5 C 2,5 C 24,5 km/h (4 Bft)
07.12.2008 14:00 5,7 C 79 % 1019,1 hPa 0,0 l/m 9,8 km/h (2 Bft) NW 2,4 C 3,0 C 22,5 km/h (4 Bft)
07.12.2008 15:00 5,4 C 80 % 1019,8 hPa 0,0 l/m 8,7 km/h (2 Bft) W 2,2 C 3,5 C 20,9 km/h (4 Bft)
07.12.2008 16:00 4,8 C 83 % 1020,5 hPa 0,3 l/m 8,6 km/h (2 Bft) W-NW 2,1 C 2,9 C 19,3 km/h (3 Bft)
07.12.2008 17:00 4,6 C 84 % 1021,2 hPa 0,3 l/m 6,7 km/h (2 Bft) W-NW 2,0 C 4,1 C 18,1 km/h (3 Bft)
07.12.2008 18:00 4,3 C 85 % 1021,8 hPa 0,9 l/m 9,9 km/h (2 Bft) W-NW 1,9 C 1,4 C 22,9 km/h (4 Bft)
07.12.2008 19:00 4,1 C 85 % 1022,3 hPa 0,3 l/m 7,5 km/h (2 Bft) W-NW 1,8 C 3,2 C 19,3 km/h (3 Bft)
07.12.2008 20:00 4,3 C 83 % 1022,8 hPa 0,3 l/m 7,8 km/h (2 Bft) NW 1,7 C 3,0 C 21,3 km/h (4 Bft)
07.12.2008 21:00 4,5 C 80 % 1023,3 hPa 0,0 l/m 9,5 km/h (2 Bft) W-NW 1,3 C 1,9 C 23,3 km/h (4 Bft)
07.12.2008 22:00 4,6 C 79 % 1023,8 hPa 0,0 l/m 9,4 km/h (2 Bft) NW 1,3 C 2,1 C 23,3 km/h (4 Bft)
07.12.2008 23:00 4,5 C 80 % 1024,2 hPa 0,0 l/m 8,9 km/h (2 Bft) W-NW 1,3 C 2,3 C 20,9 km/h (4 Bft)
Min-Datum _ 05.12.08 02.12.08 05.12.08 - 01.12.08 - 05.12.08 05.12.08 01.12.08
_ Min-Zeit 03:30 13:30 03:00 - 04:15 - 03:30 03:30 08:15
Minimum _ -1,8 C 59 % 994,4 hPa - 0,0 km/h (0 Bft) - -3,4 C -1,8 C 0,0 km/h (0 Bft)
Max-Datum _ 01.12.08 04.12.08 07.12.08 05.12.08 07.12.08 - 01.12.08 01.12.08 01.12.08
_ Max-Zeit 14:15 05:30 23:30 20:00 03:15 - 12:45 13:45 12:15
Maximum _ 10,4 C 93 % 1024,3 hPa 2,4 l/m 13,3 km/h
W (3 Bft)
- 6,4 C 10,3 C 38,6 km/h
S (5 Bft)
Durchschnitt _ 3,7 C 84 % 1006,7 hPa #13,8 l/m 2,6 km/h (1 Bft) NW 1,2 C 3,3 C 8,2 km/h (2 Bft)